Time;durP1;ratioP1;P1;durP2;ratioP2;P2;SDS_P1;SDS_P2;PMS_P1;PMS_P2;Temp;Humidity;BMP_temperature;BMP_pressure;BME280_temperature;BME280_humidity;BME280_pressure;Samples;Min_cycle;Max_cycle;Signal;HPM_P1;HPM_P2
2021/03/04 00:03:38;;;;;;;73.12;32.95;;;;;;;5.17;100.00;99521.41;4523536;77;28592;-82
2021/03/04 00:09:40;;;;;;;70.70;31.68;;;;;;;4.99;100.00;99526.58;4501500;77;28613;-82
2021/03/04 00:15:42;;;;;;;74.42;32.15;;;;;;;4.74;100.00;99516.66;4534147;78;28551;-81
2021/03/04 00:21:45;;;;;;;75.90;33.30;;;;;;;4.87;100.00;99512.86;4398784;79;28572;-82
2021/03/04 00:27:47;;;;;;;80.75;35.13;;;;;;;4.83;100.00;99497.42;4432299;79;28552;-82
2021/03/04 00:33:49;;;;;;;74.47;34.92;;;;;;;4.81;100.00;99499.45;4446942;79;28554;-82
2021/03/04 00:39:52;;;;;;;83.45;35.80;;;;;;;4.72;100.00;99501.38;4466519;79;28556;-82
2021/03/04 00:45:54;;;;;;;75.08;32.40;;;;;;;4.74;100.00;99491.36;4455969;80;28579;-83
2021/03/04 00:52:00;;;;;;;67.95;29.87;;;;;;;4.63;100.00;99480.63;4437036;80;28541;-83
2021/03/04 00:58:03;;;;;;;69.00;31.27;;;;;;;4.71;100.00;99477.08;4525365;77;28621;-82
2021/03/04 01:04:06;;;;;;;65.65;29.92;;;;;;;4.78;100.00;99467.33;4536484;77;28639;-81
2021/03/04 01:10:13;;;;;;;67.92;29.23;;;;;;;4.80;100.00;99450.68;4516926;78;28578;-81
2021/03/04 01:16:15;;;;;;;65.57;29.12;;;;;;;4.58;100.00;99447.06;4498150;78;28562;-80
2021/03/04 01:22:17;;;;;;;63.10;27.87;;;;;;;4.39;100.00;99445.23;4497937;78;28550;-81
2021/03/04 01:28:19;;;;;;;66.35;29.48;;;;;;;4.21;100.00;99432.27;4473757;78;28558;-81
2021/03/04 01:34:21;;;;;;;58.75;26.15;;;;;;;3.97;100.00;99418.66;4460049;78;28542;-81
2021/03/04 01:40:23;;;;;;;54.23;23.67;;;;;;;3.86;100.00;99414.08;4468667;77;28547;-82
2021/03/04 01:46:25;;;;;;;56.65;24.10;;;;;;;3.93;100.00;99406.73;4498234;77;28577;-83
2021/03/04 01:52:28;;;;;;;59.53;26.42;;;;;;;3.96;100.00;99400.55;4446133;80;28619;-81
2021/03/04 01:58:30;;;;;;;61.75;26.50;;;;;;;3.93;100.00;99389.44;4418383;78;28557;-81
2021/03/04 02:04:33;;;;;;;57.20;26.42;;;;;;;3.79;100.00;99393.70;4460942;80;28569;-81
2021/03/04 02:10:49;;;;;;;55.03;26.10;;;;;;;3.66;100.00;99382.31;4450990;79;28618;-80
2021/03/04 02:17:02;;;;;;;;;;;;;;;3.60;100.00;99385.19;4455529;80;28572;-80
2021/03/04 02:23:41;;;;;;;53.58;24.12;;;;;;;3.32;100.00;99385.20;4432602;79;20186;-81
2021/03/04 02:29:54;;;;;;;57.13;25.25;;;;;;;3.23;100.00;99367.64;4409766;80;28569;-82
2021/03/04 02:35:59;;;;;;;51.25;24.15;;;;;;;3.19;100.00;99367.67;4463755;79;28643;-82
2021/03/04 02:42:02;;;;;;;51.63;23.90;;;;;;;3.31;100.00;99352.14;4454342;79;28613;-82
2021/03/04 02:48:05;;;;;;;53.60;24.23;;;;;;;3.29;100.00;99348.83;4510124;78;28610;-81
2021/03/04 02:54:09;;;;;;;54.58;25.50;;;;;;;3.30;100.00;99330.55;4473969;78;28578;-82
2021/03/04 03:00:20;;;;;;;57.38;25.50;;;;;;;3.09;100.00;99321.90;4471547;77;28572;-82
2021/03/04 03:06:24;;;;;;;50.28;23.22;;;;;;;2.96;100.00;99316.63;4490476;77;28618;-82
2021/03/04 03:12:28;;;;;;;56.83;24.32;;;;;;;2.88;100.00;99311.39;4538671;77;28541;-81
2021/03/04 03:18:31;;;;;;;47.58;21.73;;;;;;;2.74;100.00;99304.46;4512185;79;28585;-80
2021/03/04 03:24:33;;;;;;;49.95;22.37;;;;;;;2.77;100.00;99304.14;4517121;79;28550;-80
2021/03/04 03:30:36;;;;;;;45.98;21.37;;;;;;;2.80;100.00;99294.98;4491208;79;28581;-80
2021/03/04 03:36:38;;;;;;;52.62;23.65;;;;;;;2.92;100.00;99291.44;4518282;79;28605;-81
2021/03/04 03:42:42;;;;;;;55.40;23.95;;;;;;;2.98;100.00;99292.56;4466211;79;28539;-81
2021/03/04 03:48:46;;;;;;;53.73;24.12;;;;;;;3.00;100.00;99277.27;4458949;79;28569;-80
2021/03/04 03:54:48;;;;;;;59.23;24.72;;;;;;;2.93;100.00;99287.77;4451577;79;28640;-81
2021/03/04 04:00:55;;;;;;;50.78;23.85;;;;;;;2.83;100.00;99285.35;4489795;79;28605;-82
2021/03/04 04:06:59;;;;;;;54.27;23.70;;;;;;;2.74;100.00;99277.09;4470903;79;28619;-81
2021/03/04 04:13:02;;;;;;;47.93;22.95;;;;;;;2.67;100.00;99271.66;4494015;78;28568;-80
2021/03/04 04:19:04;;;;;;;48.52;22.37;;;;;;;2.76;100.00;99260.00;4526080;77;28544;-79
2021/03/04 04:25:09;;;;;;;49.85;23.30;;;;;;;2.82;100.00;99254.48;4549222;77;28540;-85
2021/03/04 04:31:11;;;;;;;55.83;24.70;;;;;;;2.84;100.00;99247.66;4526949;77;28535;-82
2021/03/04 04:37:14;;;;;;;51.02;22.65;;;;;;;2.85;100.00;99246.16;4509949;77;29030;-82
2021/03/04 04:43:16;;;;;;;51.35;22.67;;;;;;;2.70;100.00;99239.45;4487496;78;28600;-82
2021/03/04 04:49:19;;;;;;;48.60;22.87;;;;;;;2.61;100.00;99229.88;4502688;77;28585;-83
2021/03/04 04:55:21;;;;;;;50.08;21.97;;;;;;;2.59;100.00;99209.31;4528386;78;28612;-82
2021/03/04 05:01:24;;;;;;;46.33;20.95;;;;;;;2.62;100.00;99204.48;4503163;78;28580;-82
2021/03/04 05:07:27;;;;;;;49.58;22.45;;;;;;;2.70;100.00;99204.09;4489680;78;28539;-81
2021/03/04 05:13:29;;;;;;;52.20;24.23;;;;;;;2.84;100.00;99190.56;4515136;78;28943;-82
2021/03/04 05:19:31;;;;;;;52.70;24.12;;;;;;;2.74;100.00;99176.20;4538477;77;28923;-83
2021/03/04 05:25:33;;;;;;;50.28;22.75;;;;;;;2.74;100.00;99169.56;4427414;79;28568;-83
2021/03/04 05:31:35;;;;;;;52.53;23.73;;;;;;;2.62;100.00;99164.67;4489669;79;28539;-83
2021/03/04 05:37:37;;;;;;;50.17;22.52;;;;;;;2.59;100.00;99156.22;4470443;79;28609;-82
2021/03/04 05:43:39;;;;;;;51.10;23.32;;;;;;;2.69;100.00;99151.51;4430242;79;28627;-84
2021/03/04 05:49:59;;;;;;;52.83;24.10;;;;;;;2.84;100.00;99152.89;4490117;78;28590;-81
2021/03/04 05:56:01;;;;;;;48.42;23.18;;;;;;;2.91;100.00;99152.48;4433847;79;28608;-81
2021/03/04 06:02:07;;;;;;;46.83;22.95;;;;;;;2.99;100.00;99138.33;4456833;79;28604;-81
2021/03/04 06:08:09;;;;;;;50.00;23.05;;;;;;;2.97;100.00;99143.00;4504133;78;28611;-81
2021/03/04 06:14:12;;;;;;;44.05;21.27;;;;;;;2.99;100.00;99148.96;4483400;77;28650;-84
2021/03/04 06:20:14;;;;;;;46.18;21.57;;;;;;;3.36;100.00;99146.47;4415746;80;28539;-88
2021/03/04 06:26:38;;;;;;;42.33;19.82;;;;;;;3.52;100.00;99153.94;4431006;80;28585;-81
2021/03/04 06:33:00;;;;;;;48.15;21.97;;;;;;;3.84;100.00;99159.41;4428636;79;28541;-81
2021/03/04 06:39:02;;;;;;;44.63;21.02;;;;;;;4.08;100.00;99159.31;4410501;80;28629;-82
2021/03/04 06:45:06;;;;;;;48.15;21.90;;;;;;;4.30;100.00;99160.17;4442620;79;28619;-84
2021/03/04 06:51:08;;;;;;;44.50;20.88;;;;;;;4.49;100.00;99145.45;4418996;79;28625;-84
2021/03/04 06:57:12;;;;;;;43.33;20.30;;;;;;;4.63;100.00;99153.04;4404024;79;28612;-87
2021/03/04 07:03:14;;;;;;;43.42;20.48;;;;;;;4.75;100.00;99137.39;4464321;79;28641;-84
2021/03/04 07:09:17;;;;;;;48.02;22.10;;;;;;;4.94;100.00;99149.23;4395618;80;28560;-83
2021/03/04 07:15:22;;;;;;;48.98;22.27;;;;;;;5.14;100.00;99142.75;4383680;81;28552;-86
2021/03/04 07:21:31;;;;;;;49.33;22.10;;;;;;;5.35;100.00;99142.89;4454510;78;28906;-81
2021/03/04 07:27:34;;;;;;;50.85;21.10;;;;;;;5.55;100.00;99137.18;4449841;79;28582;-83
2021/03/04 07:33:46;;;;;;;38.70;18.30;;;;;;;5.82;100.00;99149.35;4381622;79;28563;-82
2021/03/04 07:40:00;;;;;;;49.13;21.10;;;;;;;6.11;100.00;99139.95;4450317;79;28612;-83
2021/03/04 07:46:02;;;;;;;43.83;19.82;;;;;;;6.36;100.00;99140.25;4449934;79;28575;-82
2021/03/04 07:52:15;;;;;;;49.48;22.55;;;;;;;6.60;100.00;99135.90;4420527;79;28622;-84
2021/03/04 07:58:18;;;;;;;47.48;21.57;;;;;;;6.83;100.00;99123.50;4473012;79;28538;-84
2021/03/04 08:04:25;;;;;;;41.42;19.10;;;;;;;6.97;100.00;99125.64;4474709;78;28633;-83
2021/03/04 08:10:27;;;;;;;44.77;20.72;;;;;;;7.21;100.00;99104.68;4444366;78;28534;-81
2021/03/04 08:16:29;;;;;;;49.77;21.87;;;;;;;7.61;100.00;99095.75;4473343;79;28593;-83
2021/03/04 08:22:33;;;;;;;42.15;20.48;;;;;;;8.02;100.00;99091.06;4454466;79;28550;-85
2021/03/04 08:28:35;;;;;;;44.88;20.27;;;;;;;8.13;100.00;99082.38;4447900;79;28611;-83
2021/03/04 08:34:38;;;;;;;48.00;21.77;;;;;;;8.31;100.00;99088.86;4467246;79;28580;-84
2021/03/04 08:40:51;;;;;;;45.80;21.80;;;;;;;8.40;100.00;99092.13;4463675;79;28596;-84
2021/03/04 08:46:53;;;;;;;37.90;18.48;;;;;;;8.34;100.00;99078.53;4459118;79;28547;-78
2021/03/04 08:52:56;;;;;;;42.13;20.17;;;;;;;8.46;100.00;99072.48;4462915;79;28573;-84
2021/03/04 08:58:58;;;;;;;46.77;22.25;;;;;;;8.55;100.00;99079.80;4474408;79;28576;-83
2021/03/04 09:05:00;;;;;;;42.25;19.73;;;;;;;8.73;100.00;99072.34;4454282;79;28617;-78
2021/03/04 09:11:05;;;;;;;50.43;22.60;;;;;;;9.19;100.00;99065.73;4483002;79;28597;-80
2021/03/04 09:17:09;;;;;;;53.98;23.50;;;;;;;9.47;98.05;99080.53;4445803;79;28600;-79
2021/03/04 09:23:11;;;;;;;57.50;27.25;;;;;;;9.62;96.76;99076.65;4443669;79;28606;-78
2021/03/04 09:29:14;;;;;;;58.08;27.07;;;;;;;9.57;97.16;99067.92;4442680;79;28556;-76
2021/03/04 09:35:16;;;;;;;54.77;26.02;;;;;;;9.63;99.35;99069.72;4448715;79;28626;-78
2021/03/04 09:41:20;;;;;;;58.98;28.80;;;;;;;9.86;99.17;99060.16;4460029;78;28618;-78
2021/03/04 09:47:25;;;;;;;58.33;27.42;;;;;;;9.93;95.69;99054.70;4447621;79;28554;-78
2021/03/04 09:53:29;;;;;;;52.10;24.43;;;;;;;10.01;95.16;99038.27;4448494;79;28645;-79
2021/03/04 09:59:33;;;;;;;52.17;25.77;;;;;;;9.99;93.62;99047.09;4449945;79;28643;-77
2021/03/04 10:05:50;;;;;;;46.60;22.80;;;;;;;9.95;92.74;99038.37;4446359;78;28629;-79
2021/03/04 10:11:52;;;;;;;55.80;26.85;;;;;;;9.94;92.54;99035.39;4459060;79;28607;-77
2021/03/04 10:17:57;;;;;;;57.03;27.62;;;;;;;10.27;89.35;99034.94;4445568;79;28559;-79
2021/03/04 10:24:00;;;;;;;61.28;28.83;;;;;;;10.39;89.67;99035.48;4418342;79;28560;-79
2021/03/04 10:30:10;;;;;;;56.33;27.35;;;;;;;10.64;89.01;99025.93;4399052;79;28541;-82
2021/03/04 10:36:12;;;;;;;64.32;31.48;;;;;;;10.68;85.77;99031.66;4442930;78;28536;-82
2021/03/04 10:42:14;;;;;;;62.30;28.98;;;;;;;10.62;88.11;99015.10;4449510;78;28548;-80
2021/03/04 10:48:17;;;;;;;64.77;32.17;;;;;;;10.65;86.59;99004.70;4403524;79;28552;-79
2021/03/04 10:54:19;;;;;;;66.72;31.82;;;;;;;10.92;88.46;99000.20;4381356;80;28607;-79
2021/03/04 11:00:22;;;;;;;64.70;32.40;;;;;;;10.86;87.41;98986.36;4394509;80;28545;-79
2021/03/04 11:06:24;;;;;;;65.90;33.15;;;;;;;11.01;86.83;98973.78;4392308;79;28589;-79
2021/03/04 11:12:27;;;;;;;66.12;31.50;;;;;;;10.93;86.24;98979.52;4366401;80;28665;-79
2021/03/04 11:18:29;;;;;;;61.88;30.10;;;;;;;11.24;84.26;98970.76;4484674;77;28609;-78
2021/03/04 11:24:34;;;;;;;68.25;31.37;;;;;;;11.11;83.70;98969.97;4467692;78;28555;-80
2021/03/04 11:30:37;;;;;;;65.15;31.25;;;;;;;11.04;85.70;98957.16;4426917;79;28642;-79
2021/03/04 11:36:41;;;;;;;68.25;30.55;;;;;;;11.16;86.42;98947.19;4427930;79;28565;-77
2021/03/04 11:42:43;;;;;;;58.80;29.95;;;;;;;11.14;85.25;98949.81;4453337;79;28705;-83
2021/03/04 11:48:48;;;;;;;66.90;32.10;;;;;;;11.30;84.15;98934.29;4445526;79;28598;-84
2021/03/04 11:54:51;;;;;;;64.97;30.48;;;;;;;11.35;83.92;98919.28;4438992;80;28545;-91
2021/03/04 12:00:56;;;;;;;66.28;32.48;;;;;;;11.27;82.34;98908.38;4441391;79;28583;-87
2021/03/04 12:06:58;;;;;;;66.70;32.15;;;;;;;11.27;83.20;98908.38;4439947;79;28553;-83
2021/03/04 12:13:02;;;;;;;57.45;29.18;;;;;;;11.14;82.72;98906.77;4458785;80;28596;-87
2021/03/04 12:19:04;;;;;;;62.23;28.32;;;;;;;11.27;84.90;98899.79;4465233;80;28625;-86
2021/03/04 12:25:09;;;;;;;57.88;26.55;;;;;;;11.53;89.68;98891.39;4460512;79;28620;-86
2021/03/04 12:31:12;;;;;;;62.00;28.00;;;;;;;11.51;82.16;98888.92;4449510;79;28545;-87
2021/03/04 12:37:14;;;;;;;63.78;31.48;;;;;;;11.57;81.80;98881.23;4429144;78;28552;-85
2021/03/04 12:43:20;;;;;;;57.70;26.82;;;;;;;11.62;81.53;98872.44;4429453;80;28560;-86
2021/03/04 12:49:22;;;;;;;59.35;28.83;;;;;;;11.29;80.46;98866.72;4523653;77;28563;-85
2021/03/04 12:55:24;;;;;;;60.30;27.90;;;;;;;11.30;81.58;98866.20;4435662;78;28630;-86
2021/03/04 13:01:27;;;;;;;60.55;28.65;;;;;;;11.28;82.33;98858.88;4508467;77;28541;-89
2021/03/04 13:07:30;;;;;;;58.08;28.70;;;;;;;11.34;82.96;98852.55;4460365;79;28613;-90
2021/03/04 13:13:32;;;;;;;65.20;30.85;;;;;;;11.29;82.78;98850.57;4460196;79;28563;-94
2021/03/04 13:19:34;;;;;;;60.33;29.07;;;;;;;11.26;85.19;98843.50;4478079;79;28571;-93
2021/03/04 13:25:37;;;;;;;61.53;28.70;;;;;;;11.35;84.31;98830.47;4443464;79;28606;-93
2021/03/04 13:31:39;;;;;;;50.78;25.27;;;;;;;11.36;85.97;98830.78;4433248;79;28583;-93
2021/03/04 13:37:41;;;;;;;56.37;27.20;;;;;;;11.34;80.13;98826.14;4421808;79;28532;-96
2021/03/04 13:43:43;;;;;;;61.95;28.50;;;;;;;11.22;78.88;98828.91;4482224;79;28563;-92
2021/03/04 13:49:45;;;;;;;55.52;27.70;;;;;;;11.34;79.31;98805.44;4426708;79;28642;-91
2021/03/04 13:55:47;;;;;;;49.58;25.60;;;;;;;11.19;77.81;98816.74;4461828;79;28566;-86
2021/03/04 14:01:49;;;;;;;54.50;27.48;;;;;;;11.19;77.10;98814.56;4448768;79;28564;-94
2021/03/04 14:07:52;;;;;;;51.23;25.65;;;;;;;11.26;77.74;98805.83;4481521;79;28594;-91
2021/03/04 14:13:55;;;;;;;48.87;22.42;;;;;;;11.26;77.70;98808.00;4416374;79;28610;-93
2021/03/04 14:19:57;;;;;;;53.13;25.70;;;;;;;11.09;77.76;98800.41;4481566;79;28572;-94
2021/03/04 14:25:59;;;;;;;51.28;25.90;;;;;;;10.97;81.43;98800.44;4464658;79;28565;-93
2021/03/04 14:32:03;;;;;;;47.67;23.15;;;;;;;10.85;80.28;98797.27;4423992;79;28612;-92
2021/03/04 14:38:06;;;;;;;51.30;25.08;;;;;;;10.82;81.10;98792.89;4418731;79;28606;-92
2021/03/04 14:44:10;;;;;;;61.40;25.95;;;;;;;10.56;80.72;98783.77;4369975;81;28583;-92
2021/03/04 14:50:12;;;;;;;47.58;23.85;;;;;;;10.49;83.42;98776.91;4385436;79;28592;-91
2021/03/04 14:56:16;;;;;;;52.20;26.07;;;;;;;10.50;84.80;98772.64;4406018;79;28547;-92
2021/03/04 15:02:19;;;;;;;54.05;25.80;;;;;;;10.36;84.49;98769.36;4407760;79;28584;-93
2021/03/04 15:08:22;;;;;;;52.98;25.30;;;;;;;10.24;87.40;98757.28;4461325;78;28549;-92
2021/03/04 15:14:25;;;;;;;53.15;26.33;;;;;;;10.15;89.28;98758.17;4432179;80;28692;-93
2021/03/04 15:20:27;;;;;;;54.23;26.70;;;;;;;10.22;90.47;98748.64;4404362;79;28610;-92
2021/03/04 15:26:31;;;;;;;56.80;26.57;;;;;;;10.18;90.87;98741.58;4514424;78;28584;-91
2021/03/04 15:32:36;;;;;;;55.55;26.07;;;;;;;10.12;93.84;98737.16;4503968;78;28590;-93
2021/03/04 15:38:42;;;;;;;53.53;26.63;;;;;;;10.08;96.10;98735.98;4532774;78;28541;-94
2021/03/04 15:44:45;;;;;;;59.40;27.58;;;;;;;10.10;98.98;98732.56;4553749;78;28566;-93
2021/03/04 15:50:47;;;;;;;55.45;25.35;;;;;;;9.96;100.00;98733.84;4526411;78;28549;-91
2021/03/04 15:56:50;;;;;;;58.05;26.85;;;;;;;9.88;100.00;98735.81;4518116;78;28584;-91
2021/03/04 16:02:54;;;;;;;52.48;25.08;;;;;;;9.89;100.00;98741.50;4423891;80;28852;-79
2021/03/04 16:09:00;;;;;;;56.08;27.48;;;;;;;9.67;100.00;98746.62;4446070;78;28567;-80
2021/03/04 16:15:05;;;;;;;53.83;24.92;;;;;;;9.54;100.00;98746.31;4448028;79;28549;-79
2021/03/04 16:21:07;;;;;;;47.08;23.40;;;;;;;9.42;100.00;98738.23;4408985;79;28658;-79
2021/03/04 16:27:10;;;;;;;53.68;26.52;;;;;;;9.44;100.00;98736.16;4410678;79;28559;-80
2021/03/04 16:33:17;;;;;;;60.25;28.12;;;;;;;9.40;100.00;98734.16;4400046;79;28557;-78
2021/03/04 16:39:24;;;;;;;50.43;25.57;;;;;;;9.15;100.00;98737.83;4404730;79;28548;-79
2021/03/04 16:45:27;;;;;;;60.73;28.75;;;;;;;9.02;100.00;98741.54;4414182;79;28610;-78
2021/03/04 16:51:30;;;;;;;57.08;26.97;;;;;;;9.13;100.00;98743.44;4424872;79;28571;-80
2021/03/04 16:57:32;;;;;;;57.45;27.37;;;;;;;9.00;100.00;98735.56;4412476;79;28586;-79
2021/03/04 17:03:38;;;;;;;63.75;29.45;;;;;;;8.95;100.00;98744.83;4407925;79;28555;-76
2021/03/04 17:09:42;;;;;;;68.80;31.15;;;;;;;8.98;100.00;98750.56;4409440;79;28610;-76
2021/03/04 17:15:44;;;;;;;67.85;30.90;;;;;;;8.87;100.00;98745.97;4433120;79;28573;-77
2021/03/04 17:21:51;;;;;;;71.60;31.52;;;;;;;8.79;100.00;98750.59;4516003;77;29059;-79
2021/03/04 17:27:53;;;;;;;61.28;29.50;;;;;;;8.74;100.00;98750.98;4521206;77;28536;-79
2021/03/04 17:33:57;;;;;;;70.32;33.55;;;;;;;8.73;100.00;98756.05;4509908;77;28580;-78
2021/03/04 17:40:00;;;;;;;69.60;32.73;;;;;;;8.61;100.00;98746.09;4524263;77;28637;-77
2021/03/04 17:46:03;;;;;;;71.53;30.95;;;;;;;8.62;100.00;98745.55;4461904;78;28623;-78
2021/03/04 17:52:09;;;;;;;61.25;30.23;;;;;;;8.68;100.00;98735.28;4503449;77;28622;-77
2021/03/04 17:58:11;;;;;;;63.63;30.70;;;;;;;8.63;100.00;98700.28;4425781;79;28660;-80
2021/03/04 18:04:16;;;;;;;67.85;31.65;;;;;;;8.69;100.00;98723.52;4450779;79;28610;-79
2021/03/04 18:10:18;;;;;;;66.12;31.70;;;;;;;8.65;100.00;98712.42;4457795;79;28599;-76
2021/03/04 18:16:20;;;;;;;64.40;30.72;;;;;;;8.70;100.00;98714.42;4466061;79;28602;-75
2021/03/04 18:22:23;;;;;;;69.12;32.95;;;;;;;8.69;100.00;98702.58;4465472;79;28631;-76
2021/03/04 18:28:26;;;;;;;77.20;35.15;;;;;;;8.77;100.00;98705.78;4465291;79;28545;-76
2021/03/04 18:34:30;;;;;;;67.27;32.30;;;;;;;8.73;100.00;98697.08;4454048;79;28643;-78
2021/03/04 18:40:32;;;;;;;73.62;32.65;;;;;;;8.63;100.00;98705.14;4475795;79;28564;-81
2021/03/04 18:46:34;;;;;;;65.52;32.40;;;;;;;8.48;100.00;98701.48;4456556;79;28618;-78
2021/03/04 18:52:39;;;;;;;68.52;32.80;;;;;;;8.51;100.00;98704.27;4463540;79;28635;-80
2021/03/04 18:58:41;;;;;;;78.17;37.63;;;;;;;8.27;100.00;98701.42;4453688;79;28564;-81
2021/03/04 19:04:44;;;;;;;72.45;33.20;;;;;;;8.16;100.00;98685.59;4474526;78;28576;-81
2021/03/04 19:10:47;;;;;;;63.35;27.73;;;;;;;8.28;100.00;98683.50;4472147;79;28576;-78
2021/03/04 19:16:50;;;;;;;72.42;36.53;;;;;;;8.18;100.00;98690.73;4464088;79;28572;-81
2021/03/04 19:22:52;;;;;;;74.90;32.85;;;;;;;8.27;100.00;98684.01;4407635;79;28685;-81
2021/03/04 19:28:55;;;;;;;66.60;33.30;;;;;;;8.29;100.00;98691.32;4388154;79;28615;-82
2021/03/04 19:34:57;;;;;;;65.97;30.02;;;;;;;8.16;100.00;98695.47;4432064;79;28581;-82
2021/03/04 19:40:59;;;;;;;69.22;32.85;;;;;;;7.97;100.00;98701.36;4414384;78;28541;-85
2021/03/04 19:47:04;;;;;;;58.00;27.98;;;;;;;8.06;100.00;98682.63;4425971;79;28546;-83
2021/03/04 19:53:07;;;;;;;79.60;36.58;;;;;;;8.18;100.00;98683.50;4415971;79;28605;-79
2021/03/04 19:59:09;;;;;;;78.07;34.43;;;;;;;8.06;100.00;98683.96;4392552;79;28569;-84
2021/03/04 20:05:13;;;;;;;73.72;34.75;;;;;;;7.87;100.00;98687.16;4419167;79;28619;-84
2021/03/04 20:11:16;;;;;;;74.42;34.08;;;;;;;7.94;100.00;98691.91;4434395;79;28611;-82
2021/03/04 20:17:19;;;;;;;76.80;35.90;;;;;;;7.83;100.00;98686.78;4437844;78;28607;-80
2021/03/04 20:23:23;;;;;;;74.72;34.65;;;;;;;7.75;100.00;98684.39;4509375;78;28600;-84
2021/03/04 20:29:27;;;;;;;79.50;35.50;;;;;;;7.82;100.00;98683.81;4445059;79;28557;-78
2021/03/04 20:35:31;;;;;;;81.67;35.70;;;;;;;7.62;100.00;98683.48;4471269;79;28557;-77
2021/03/04 20:41:34;;;;;;;66.42;32.25;;;;;;;7.80;100.00;98675.99;4468507;79;28651;-80
2021/03/04 20:47:38;;;;;;;77.80;36.35;;;;;;;7.87;100.00;98681.27;4461576;79;28615;-77
2021/03/04 20:53:40;;;;;;;75.17;33.70;;;;;;;7.86;100.00;98671.61;4467935;79;28626;-76
2021/03/04 20:59:44;;;;;;;75.67;35.88;;;;;;;7.77;100.00;98687.66;4411045;79;28570;-78
2021/03/04 21:05:48;;;;;;;77.37;36.73;;;;;;;7.74;100.00;98682.22;4467017;79;28567;-79
2021/03/04 21:11:52;;;;;;;72.30;34.53;;;;;;;7.76;100.00;98672.14;4461156;79;28657;-76
2021/03/04 21:17:55;;;;;;;80.95;38.95;;;;;;;7.75;100.00;98676.36;4468176;79;28701;-79
2021/03/04 21:23:58;;;;;;;88.03;41.68;;;;;;;7.49;100.00;98679.58;4443136;79;28554;-78
2021/03/04 21:30:06;;;;;;;71.30;33.80;;;;;;;7.08;100.00;98676.42;4489135;79;28555;-76
2021/03/04 21:36:09;;;;;;;73.30;34.63;;;;;;;6.87;100.00;98679.75;4476495;79;28554;-76
2021/03/04 21:42:11;;;;;;;81.60;37.78;;;;;;;6.61;100.00;98680.73;4486592;79;28544;-76
2021/03/04 21:48:14;;;;;;;75.20;34.13;;;;;;;6.24;100.00;98687.98;4478558;79;28639;-78
2021/03/04 21:54:19;;;;;;;80.62;37.67;;;;;;;6.06;100.00;98692.67;4471405;79;28548;-79
2021/03/04 22:00:22;;;;;;;87.12;38.35;;;;;;;6.02;100.00;98696.77;4453840;79;28594;-79
2021/03/04 22:06:27;;;;;;;85.83;38.00;;;;;;;5.94;100.00;98699.13;4470228;79;28576;-79
2021/03/04 22:12:30;;;;;;;70.40;32.88;;;;;;;5.87;100.00;98703.16;4431262;79;28579;-79
2021/03/04 22:18:32;;;;;;;82.47;38.20;;;;;;;5.89;100.00;98687.75;4528750;77;28576;-78
2021/03/04 22:24:34;;;;;;;90.38;39.53;;;;;;;5.63;100.00;98697.45;4510359;78;28544;-79
2021/03/04 22:30:36;;;;;;;78.90;35.90;;;;;;;5.70;100.00;98718.25;4540928;78;28621;-77
2021/03/04 22:36:39;;;;;;;81.72;35.48;;;;;;;5.65;100.00;98727.41;4485712;78;28604;-77
2021/03/04 22:42:43;;;;;;;84.03;37.35;;;;;;;5.71;100.00;98729.75;4463446;79;28573;-81
2021/03/04 22:48:45;;;;;;;85.45;38.02;;;;;;;5.80;100.00;98729.84;4416194;80;28602;-79
2021/03/04 22:54:49;;;;;;;82.78;38.00;;;;;;;5.38;100.00;98743.39;4522162;78;28578;-78
2021/03/04 23:00:51;;;;;;;87.67;40.00;;;;;;;5.41;100.00;98739.50;4531156;78;28605;-79
2021/03/04 23:06:54;;;;;;;74.97;33.58;;;;;;;5.19;100.00;98741.03;4493168;78;28604;-79
2021/03/04 23:12:56;;;;;;;74.50;35.15;;;;;;;5.38;100.00;98747.92;4509448;78;28598;-78
2021/03/04 23:18:59;;;;;;;76.60;35.33;;;;;;;5.29;100.00;98752.11;4521400;78;28616;-78
2021/03/04 23:25:16;;;;;;;89.60;39.60;;;;;;;5.34;100.00;98755.50;4445201;80;28592;-79
2021/03/04 23:31:26;;;;;;;75.62;35.28;;;;;;;5.23;100.00;98746.25;4383691;79;72186;-78
2021/03/04 23:37:29;;;;;;;71.82;33.28;;;;;;;4.87;100.00;98768.21;4322051;81;28594;-79
2021/03/04 23:43:31;;;;;;;60.03;28.47;;;;;;;4.87;100.00;98777.53;4325782;80;28616;-77
2021/03/04 23:49:33;;;;;;;53.42;26.87;;;;;;;4.17;100.00;98790.96;4304243;81;28552;-80
2021/03/04 23:55:36;;;;;;;59.03;27.90;;;;;;;4.17;100.00;98785.11;4314826;81;28617;-78
